createdAt,value
2019-02-28T00:00:15.999Z,9.33
2019-02-28T00:02:44.497Z,8.90
2019-02-28T00:05:13.035Z,9.47
2019-02-28T00:07:41.601Z,8.63
2019-02-28T00:10:10.520Z,8.93
2019-02-28T00:12:39.010Z,9.00
2019-02-28T00:15:09.328Z,9.20
2019-02-28T00:17:42.735Z,9.40
2019-02-28T00:20:09.156Z,9.20
2019-02-28T00:22:37.789Z,8.83
2019-02-28T00:25:08.501Z,8.27
2019-02-28T00:27:36.995Z,8.53
2019-02-28T00:30:08.833Z,9.03
2019-02-28T00:32:37.338Z,8.53
2019-02-28T00:35:07.344Z,7.93
2019-02-28T00:37:35.837Z,8.37
2019-02-28T00:40:06.709Z,8.33
2019-02-28T00:42:35.362Z,8.50
2019-02-28T00:45:05.397Z,8.27
2019-02-28T00:47:33.891Z,8.50
2019-02-28T00:50:02.365Z,8.53
2019-02-28T00:52:32.057Z,9.30
2019-02-28T00:55:01.260Z,9.20
2019-02-28T00:57:29.710Z,8.93
2019-02-28T00:59:58.176Z,8.80
2019-02-28T01:02:26.671Z,9.17
2019-02-28T01:04:55.133Z,9.20
2019-02-28T01:07:23.628Z,9.23
2019-02-28T01:09:52.103Z,9.03
2019-02-28T01:12:20.593Z,8.77
2019-02-28T01:14:49.064Z,9.37
2019-02-28T01:17:17.565Z,9.20
2019-02-28T01:19:46.037Z,9.80
2019-02-28T01:22:14.544Z,8.87
2019-02-28T01:24:43.018Z,9.50
2019-02-28T01:27:11.514Z,9.27
2019-02-28T01:29:39.981Z,8.80
2019-02-28T01:32:08.477Z,9.60
2019-02-28T01:34:36.948Z,9.47
2019-02-28T01:37:05.445Z,9.73
2019-02-28T01:39:33.921Z,9.23
2019-02-28T01:42:02.419Z,9.77
2019-02-28T01:44:35.605Z,9.60
2019-02-28T01:47:01.111Z,9.53
2019-02-28T01:49:29.583Z,9.37
2019-02-28T01:51:58.087Z,10.33
2019-02-28T01:54:27.626Z,9.30
2019-02-28T01:56:56.937Z,9.50
2019-02-28T01:59:25.409Z,9.13
2019-02-28T02:01:53.908Z,9.47
2019-02-28T02:04:22.383Z,9.37
2019-02-28T02:06:51.318Z,8.43
2019-02-28T02:09:19.861Z,9.57
2019-02-28T02:11:48.356Z,8.37
2019-02-28T02:14:16.825Z,8.53
2019-02-28T02:16:45.325Z,10.37
2019-02-28T02:19:17.490Z,8.13
2019-02-28T02:21:44.005Z,7.97
2019-02-28T02:24:12.501Z,8.23
2019-02-28T02:26:42.354Z,8.13
2019-02-28T02:29:11.193Z,8.50
2019-02-28T02:31:39.739Z,8.03
2019-02-28T02:34:08.233Z,7.83
2019-02-28T02:36:36.706Z,8.70
2019-02-28T02:39:06.444Z,8.50
2019-02-28T02:41:35.032Z,7.80
2019-02-28T02:44:03.693Z,7.53
2019-02-28T02:46:32.171Z,7.47
2019-02-28T02:49:00.672Z,7.20
2019-02-28T02:51:29.153Z,7.73
2019-02-28T02:53:57.645Z,6.87
2019-02-28T02:56:26.121Z,7.37
2019-02-28T02:58:54.616Z,7.30
2019-02-28T03:01:24.359Z,6.70
2019-02-28T03:03:53.061Z,6.77
2019-02-28T03:06:21.537Z,6.67
2019-02-28T03:08:50.052Z,6.47
2019-02-28T03:11:18.511Z,6.77
2019-02-28T03:13:47.012Z,6.30
2019-02-28T03:16:15.483Z,5.90
2019-02-28T03:18:43.982Z,6.80
2019-02-28T03:21:15.231Z,5.73
2019-02-28T03:23:42.677Z,6.20
2019-02-28T03:26:11.149Z,6.33
2019-02-28T03:28:39.638Z,5.70
2019-02-28T03:31:14.156Z,6.57
2019-02-28T03:33:38.338Z,5.70
2019-02-28T03:36:06.811Z,5.20
2019-02-28T03:38:35.304Z,5.67
2019-02-28T03:41:03.774Z,5.50
2019-02-28T03:43:32.329Z,5.33
2019-02-28T03:46:00.809Z,4.87
2019-02-28T03:48:34.675Z,5.50
2019-02-28T03:50:59.482Z,4.97
2019-02-28T03:53:27.985Z,4.87
2019-02-28T03:55:56.453Z,5.57
2019-02-28T03:58:24.943Z,5.00
2019-02-28T04:00:53.409Z,5.77
2019-02-28T04:03:21.908Z,5.80
2019-02-28T04:05:50.375Z,5.50
2019-02-28T04:08:18.894Z,5.10
2019-02-28T04:10:47.356Z,4.97
2019-02-28T04:13:19.141Z,4.93
2019-02-28T04:16:01.534Z,5.00
2019-02-28T04:18:16.260Z,6.60
2019-02-28T04:20:44.738Z,5.60
2019-02-28T04:23:13.234Z,5.03
2019-02-28T04:25:41.707Z,5.53
2019-02-28T04:28:17.314Z,5.30
2019-02-28T04:30:43.721Z,6.17
2019-02-28T04:33:10.630Z,5.70
2019-02-28T04:35:39.171Z,5.50
2019-02-28T04:38:07.671Z,5.87
2019-02-28T04:40:36.137Z,5.53
2019-02-28T04:43:07.254Z,5.87
2019-02-28T04:45:34.823Z,5.50
2019-02-28T04:48:03.314Z,6.10
2019-02-28T04:50:32.282Z,6.20
2019-02-28T04:53:00.755Z,6.80
2019-02-28T04:55:30.618Z,5.73
2019-02-28T04:57:59.184Z,6.50
2019-02-28T05:00:27.685Z,6.67
2019-02-28T05:02:56.162Z,6.33
2019-02-28T05:05:24.656Z,6.03
2019-02-28T05:07:53.128Z,6.57
2019-02-28T05:10:22.274Z,5.83
2019-02-28T05:12:51.377Z,6.80
2019-02-28T05:15:19.875Z,6.50
2019-02-28T05:17:48.351Z,7.03
2019-02-28T05:20:16.863Z,6.47
2019-02-28T05:22:45.328Z,6.97
2019-02-28T05:25:17.555Z,5.80
2019-02-28T05:27:44.024Z,6.67
2019-02-28T05:30:18.056Z,6.70
2019-02-28T05:32:44.802Z,6.93
2019-02-28T05:35:13.367Z,7.33
2019-02-28T05:37:46.700Z,7.27
2019-02-28T05:40:13.802Z,7.10
2019-02-28T05:42:42.291Z,7.73
2019-02-28T05:45:14.466Z,6.20
2019-02-28T05:47:46.288Z,6.90
2019-02-28T05:50:15.580Z,7.17
2019-02-28T05:52:42.669Z,6.90
2019-02-28T05:55:11.612Z,6.93
2019-02-28T05:57:43.393Z,7.20
2019-02-28T06:00:13.573Z,7.17
2019-02-28T06:02:42.051Z,7.07
2019-02-28T06:05:11.847Z,7.30
2019-02-28T06:07:40.752Z,7.73
2019-02-28T06:10:11.089Z,8.00
2019-02-28T06:12:40.540Z,7.87
2019-02-28T06:15:11.983Z,7.60
2019-02-28T06:17:40.452Z,7.70
2019-02-28T06:20:10.599Z,8.00
2019-02-28T06:22:39.077Z,8.20
2019-02-28T06:25:09.340Z,8.43
2019-02-28T06:27:41.647Z,8.50
2019-02-28T06:30:12.969Z,7.73
2019-02-28T06:32:41.445Z,8.17
2019-02-28T06:35:10.086Z,8.17
2019-02-28T06:37:39.207Z,9.03
2019-02-28T06:40:13.350Z,8.57
2019-02-28T06:42:43.439Z,8.77
2019-02-28T06:45:19.049Z,8.23
2019-02-28T06:47:49.595Z,8.63
2019-02-28T06:50:17.809Z,8.17
2019-02-28T06:52:46.283Z,8.67
2019-02-28T06:55:25.388Z,9.77
2019-02-28T06:57:53.856Z,9.33
2019-02-28T07:00:22.425Z,9.63
2019-02-28T07:02:50.900Z,10.20
2019-02-28T07:05:24.622Z,9.90
2019-02-28T07:07:50.058Z,10.10
2019-02-28T07:10:18.948Z,10.03
2019-02-28T07:12:47.421Z,10.37
2019-02-28T07:15:15.999Z,10.23
2019-02-28T07:17:46.520Z,10.17
2019-02-28T07:20:16.042Z,10.33
2019-02-28T07:22:44.597Z,10.97
2019-02-28T07:25:13.874Z,11.50
2019-02-28T07:27:42.498Z,11.70
2019-02-28T07:30:17.333Z,10.67
2019-02-28T07:32:44.164Z,11.43
2019-02-28T07:35:12.740Z,10.93
2019-02-28T07:37:41.220Z,11.20
2019-02-28T07:40:17.543Z,10.70
2019-02-28T07:42:46.225Z,11.87
2019-02-28T07:45:15.366Z,11.70
2019-02-28T07:47:43.979Z,12.10
2019-02-28T07:50:14.590Z,10.87
2019-02-28T07:52:43.061Z,12.33
2019-02-28T07:55:13.701Z,12.27
2019-02-28T07:57:42.184Z,12.63
2019-02-28T08:00:18.190Z,12.40
2019-02-28T08:02:46.202Z,12.40
2019-02-28T08:05:15.136Z,12.43
2019-02-28T08:07:50.196Z,13.00
2019-02-28T08:10:19.255Z,14.07
2019-02-28T08:12:47.734Z,13.73
2019-02-28T08:15:23.582Z,13.20
2019-02-28T08:17:52.301Z,14.03
2019-02-28T08:20:21.345Z,12.00
2019-02-28T08:22:49.827Z,12.43
2019-02-28T08:25:18.332Z,12.80
2019-02-28T08:27:46.946Z,13.03
2019-02-28T08:30:20.880Z,13.33
2019-02-28T08:32:49.598Z,12.83
2019-02-28T08:35:18.122Z,12.97
2019-02-28T08:37:46.588Z,12.77
2019-02-28T08:40:22.983Z,13.93
2019-02-28T08:42:51.460Z,13.63
2019-02-28T08:45:19.974Z,14.73
2019-02-28T08:47:48.530Z,16.17
2019-02-28T08:50:23.629Z,16.30
2019-02-28T08:53:05.652Z,16.43
2019-02-28T08:55:34.162Z,17.83
2019-02-28T08:58:06.070Z,17.30
2019-02-28T09:00:33.424Z,17.60
2019-02-28T09:03:02.014Z,17.87
2019-02-28T09:05:30.532Z,18.42
2019-02-28T09:07:59.139Z,19.32
2019-02-28T09:10:28.076Z,18.35
2019-02-28T09:12:56.563Z,18.48
2019-02-28T09:15:30.147Z,18.55
2019-02-28T09:17:59.359Z,19.25
2019-02-28T09:20:25.822Z,19.02
2019-02-28T09:22:54.311Z,19.48
2019-02-28T09:25:23.961Z,20.15
2019-02-28T09:27:52.585Z,19.32
2019-02-28T09:30:41.619Z,18.40
2019-02-28T09:33:10.212Z,18.00
2019-02-28T09:35:38.680Z,19.83
2019-02-28T09:38:13.014Z,19.27
2019-02-28T09:40:37.392Z,18.67
2019-02-28T09:43:06.016Z,19.42
2019-02-28T09:45:35.002Z,19.33
2019-02-28T09:48:03.548Z,21.60
2019-02-28T09:50:33.163Z,21.73
2019-02-28T09:53:01.894Z,21.13
2019-02-28T09:55:34.262Z,20.60
2019-02-28T09:58:00.674Z,22.83
2019-02-28T10:00:30.248Z,22.07
2019-02-28T10:02:58.723Z,22.67
2019-02-28T10:05:27.222Z,21.87
2019-02-28T10:08:01.690Z,22.30
2019-02-28T10:10:30.301Z,24.17
2019-02-28T10:12:58.777Z,24.57
2019-02-28T10:15:27.428Z,25.70
2019-02-28T10:17:55.954Z,24.87
2019-02-28T10:20:28.418Z,25.47
2019-02-28T10:22:57.163Z,26.60
2019-02-28T10:25:25.713Z,28.33
2019-02-28T10:27:54.831Z,27.97
2019-02-28T10:30:31.624Z,25.67
2019-02-28T10:32:54.991Z,26.87
2019-02-28T10:35:23.474Z,21.83
2019-02-28T10:37:57.454Z,27.07
2019-02-28T10:40:24.963Z,24.40
2019-02-28T10:42:53.807Z,24.03
2019-02-28T10:45:23.096Z,24.83
2019-02-28T10:47:51.608Z,24.90
2019-02-28T10:50:22.429Z,23.80
2019-02-28T10:52:51.003Z,24.10
2019-02-28T10:55:22.403Z,22.45
2019-02-28T10:57:50.187Z,26.03
2019-02-28T11:00:29.282Z,24.47
2019-02-28T11:02:57.781Z,23.00
2019-02-28T11:05:29.087Z,25.48
2019-02-28T11:07:57.735Z,26.73
2019-02-28T11:10:37.994Z,27.90
2019-02-28T11:13:09.555Z,26.10
2019-02-28T11:15:38.176Z,24.23
2019-02-28T11:18:09.559Z,24.35
2019-02-28T11:20:37.747Z,24.25
2019-02-28T11:23:07.652Z,25.10
2019-02-28T11:25:36.516Z,24.10
2019-02-28T11:28:05.261Z,25.92
2019-02-28T11:30:36.053Z,25.37
2019-02-28T11:33:04.855Z,25.17
2019-02-28T11:35:33.481Z,26.17
2019-02-28T11:38:02.115Z,25.00
2019-02-28T11:40:30.844Z,26.65
2019-02-28T11:43:02.754Z,25.10
2019-02-28T11:45:34.209Z,25.50
2019-02-28T11:48:05.358Z,25.48
2019-02-28T11:50:33.912Z,27.98
2019-02-28T11:53:05.708Z,29.77
2019-02-28T11:55:32.622Z,29.98
2019-02-28T11:58:01.569Z,29.12
2019-02-28T12:00:35.916Z,32.17
2019-02-28T12:03:02.955Z,34.20
2019-02-28T12:05:31.505Z,32.17
2019-02-28T12:08:00.014Z,31.95
2019-02-28T12:10:28.497Z,32.50
2019-02-28T12:12:57.000Z,32.58
2019-02-28T12:15:30.771Z,31.97
2019-02-28T12:18:03.495Z,32.48
2019-02-28T12:20:29.557Z,32.58
2019-02-28T12:22:58.071Z,30.45
2019-02-28T12:25:26.892Z,31.87
2019-02-28T12:27:55.471Z,34.53
2019-02-28T12:30:29.052Z,30.27
2019-02-28T12:32:57.564Z,31.33
2019-02-28T12:35:26.042Z,32.73
2019-02-28T12:37:55.016Z,30.02
2019-02-28T12:40:35.264Z,31.82
2019-02-28T12:43:08.807Z,49.93
2019-02-28T12:45:41.276Z,33.40
2019-02-28T12:48:09.862Z,30.37
2019-02-28T12:50:38.405Z,28.80
2019-02-28T12:53:07.253Z,27.60
2019-02-28T12:55:39.022Z,25.12
2019-02-28T12:58:06.907Z,25.27
2019-02-28T13:00:40.682Z,25.62
2019-02-28T13:03:10.219Z,26.02
2019-02-28T13:05:38.771Z,25.35
2019-02-28T13:08:07.287Z,26.37
2019-02-28T13:10:35.999Z,29.90
2019-02-28T13:13:06.794Z,25.15
2019-02-28T13:15:35.022Z,26.02
2019-02-28T13:18:07.163Z,40.20
2019-02-28T13:20:36.489Z,29.90
2019-02-28T13:23:05.347Z,32.13
2019-02-28T13:25:34.011Z,25.75
2019-02-28T13:28:02.512Z,27.07
2019-02-28T13:30:31.138Z,29.45
2019-02-28T13:32:59.814Z,32.50
2019-02-28T13:35:30.704Z,29.75
2019-02-28T13:37:59.291Z,29.15
2019-02-28T13:40:27.771Z,35.45
2019-02-28T13:42:56.296Z,36.23
2019-02-28T13:45:25.496Z,40.20
2019-02-28T13:47:54.005Z,51.58
2019-02-28T13:50:33.160Z,30.48
2019-02-28T13:53:03.441Z,30.85
2019-02-28T13:55:31.999Z,33.60
2019-02-28T13:58:00.660Z,30.52
2019-02-28T14:00:33.816Z,30.27
2019-02-28T14:03:10.487Z,31.20
2019-02-28T14:05:41.296Z,30.55
2019-02-28T14:08:11.243Z,31.20
2019-02-28T14:10:39.662Z,32.00
2019-02-28T14:13:08.375Z,29.63
2019-02-28T14:15:39.336Z,33.70
2019-02-28T14:18:10.945Z,29.85
2019-02-28T14:20:38.560Z,35.52
2019-02-28T14:23:07.142Z,33.38
2019-02-28T14:25:36.377Z,33.13
2019-02-28T14:28:06.097Z,32.23
2019-02-28T14:30:34.651Z,32.10
2019-02-28T14:33:03.226Z,33.23
2019-02-28T14:35:35.184Z,32.70
2019-02-28T14:38:01.930Z,34.95
2019-02-28T14:40:30.418Z,32.40
2019-02-28T14:42:58.998Z,33.33
2019-02-28T14:45:29.520Z,32.73
2019-02-28T14:48:00.865Z,33.55
2019-02-28T14:50:28.229Z,33.25
2019-02-28T14:52:58.086Z,34.38
2019-02-28T14:55:29.377Z,32.90
2019-02-28T14:57:57.247Z,32.13
2019-02-28T15:00:35.342Z,33.25
2019-02-28T15:03:04.214Z,34.43
2019-02-28T15:05:38.137Z,34.07
2019-02-28T15:08:06.793Z,32.42
2019-02-28T15:10:35.414Z,32.98
2019-02-28T15:13:04.936Z,33.23
2019-02-28T15:15:35.919Z,32.95
2019-02-28T15:18:04.190Z,31.17
2019-02-28T15:20:33.162Z,33.43
2019-02-28T15:23:01.862Z,33.50
2019-02-28T15:25:30.981Z,32.50
2019-02-28T15:27:59.662Z,31.65
2019-02-28T15:30:34.838Z,32.70
2019-02-28T15:33:03.672Z,32.38
2019-02-28T15:35:32.135Z,33.07
2019-02-28T15:38:00.730Z,32.40
2019-02-28T15:40:32.049Z,32.63
2019-02-28T15:43:00.564Z,32.10
2019-02-28T15:45:29.179Z,31.65
2019-02-28T15:47:59.130Z,32.30
2019-02-28T15:50:27.886Z,30.30
2019-02-28T15:52:56.504Z,30.72
2019-02-28T15:55:25.548Z,30.70
2019-02-28T15:57:54.094Z,30.27
2019-02-28T16:00:30.512Z,29.37
2019-02-28T16:02:59.128Z,26.67
2019-02-28T16:05:27.774Z,29.57
2019-02-28T16:07:57.298Z,29.33
2019-02-28T16:10:28.575Z,27.77
2019-02-28T16:12:58.717Z,27.98
2019-02-28T16:15:27.451Z,27.93
2019-02-28T16:17:56.016Z,29.05
2019-02-28T16:20:25.106Z,27.42
2019-02-28T16:22:53.659Z,28.95
2019-02-28T16:25:25.020Z,30.37
2019-02-28T16:27:53.496Z,29.72
2019-02-28T16:30:22.347Z,29.83
2019-02-28T16:32:50.860Z,32.87
2019-02-28T16:35:19.439Z,79.07
2019-02-28T16:37:47.934Z,135.33
2019-02-28T16:40:26.181Z,49.07
2019-02-28T16:42:51.730Z,36.93
2019-02-28T16:45:24.929Z,37.67
2019-02-28T16:47:55.688Z,37.20
2019-02-28T16:50:23.645Z,43.53
2019-02-28T16:52:52.321Z,48.20
2019-02-28T16:55:20.830Z,35.10
2019-02-28T16:57:49.313Z,40.90
2019-02-28T17:00:18.336Z,34.93
2019-02-28T17:02:46.955Z,45.73
2019-02-28T17:05:15.535Z,39.20
2019-02-28T17:07:44.567Z,39.23
2019-02-28T17:10:19.006Z,46.93
2019-02-28T17:12:51.962Z,33.67
2019-02-28T17:15:23.276Z,32.20
2019-02-28T17:17:54.211Z,38.17
2019-02-28T17:20:22.720Z,34.40
2019-02-28T17:22:51.203Z,32.10
2019-02-28T17:25:21.832Z,34.10
2019-02-28T17:27:57.277Z,34.80
2019-02-28T17:30:39.188Z,34.03
2019-02-28T17:33:09.091Z,34.20
2019-02-28T17:35:38.295Z,34.30
2019-02-28T17:38:06.846Z,34.10
2019-02-28T17:40:35.424Z,35.90
2019-02-28T17:43:03.901Z,34.73
2019-02-28T17:45:32.482Z,34.57
2019-02-28T17:48:20.420Z,35.00
2019-02-28T17:51:00.545Z,34.50
2019-02-28T17:53:35.018Z,35.73
2019-02-28T17:56:24.524Z,34.97
2019-02-28T17:59:05.289Z,32.83
2019-02-28T18:01:48.429Z,36.50
2019-02-28T18:04:24.110Z,34.03
2019-02-28T18:07:16.568Z,34.37
2019-02-28T18:09:53.980Z,36.97
2019-02-28T18:12:58.356Z,35.97
2019-02-28T18:15:35.795Z,36.80
2019-02-28T18:18:22.407Z,37.23
2019-02-28T18:21:12.583Z,35.80
2019-02-28T18:23:50.035Z,35.47
2019-02-28T18:26:39.284Z,36.90
2019-02-28T18:29:14.874Z,39.00
2019-02-28T18:31:43.360Z,37.00
2019-02-28T18:34:11.991Z,37.67
2019-02-28T18:36:43.377Z,37.40
2019-02-28T18:39:11.637Z,36.13
2019-02-28T18:41:42.156Z,37.57
2019-02-28T18:44:11.093Z,37.57
2019-02-28T18:46:39.590Z,37.00
2019-02-28T18:49:08.075Z,37.67
2019-02-28T18:51:36.581Z,40.27
2019-02-28T18:54:05.303Z,37.43
2019-02-28T18:56:33.816Z,44.90
2019-02-28T18:59:02.358Z,39.47
2019-02-28T19:01:30.915Z,38.37
2019-02-28T19:03:59.424Z,40.17
2019-02-28T19:06:27.973Z,40.83
2019-02-28T19:08:56.480Z,39.53
2019-02-28T19:11:25.062Z,38.70
2019-02-28T19:13:53.563Z,39.23
2019-02-28T19:16:22.068Z,39.53
2019-02-28T19:18:50.547Z,40.33
2019-02-28T19:21:19.057Z,41.07
2019-02-28T19:23:47.540Z,40.00
2019-02-28T19:26:17.521Z,40.57
2019-02-28T19:28:46.004Z,40.47
2019-02-28T19:31:14.515Z,39.00
2019-02-28T19:33:43.064Z,40.73
2019-02-28T19:36:11.579Z,40.17
2019-02-28T19:38:40.058Z,41.33
2019-02-28T19:41:10.208Z,42.93
2019-02-28T19:43:38.691Z,39.97
2019-02-28T19:46:07.296Z,40.70
2019-02-28T19:48:36.439Z,42.20
2019-02-28T19:51:05.194Z,38.60
2019-02-28T19:53:33.678Z,42.33
2019-02-28T19:56:02.189Z,43.80
2019-02-28T19:58:30.728Z,45.60
2019-02-28T20:00:59.697Z,49.93
2019-02-28T20:03:28.173Z,44.10
2019-02-28T20:05:56.706Z,44.80
2019-02-28T20:08:25.180Z,42.63
2019-02-28T20:10:53.772Z,43.27
2019-02-28T20:13:22.250Z,43.27
2019-02-28T20:15:50.837Z,42.13
2019-02-28T20:18:19.378Z,44.63
2019-02-28T20:20:48.662Z,46.17
2019-02-28T20:23:17.158Z,42.57
2019-02-28T20:25:45.627Z,45.10
2019-02-28T20:28:14.214Z,46.27
2019-02-28T20:30:42.773Z,42.67
2019-02-28T20:33:11.362Z,42.57
2019-02-28T20:35:39.909Z,45.83
2019-02-28T20:38:08.422Z,43.67
2019-02-28T20:40:38.334Z,44.73
2019-02-28T20:43:06.845Z,45.37
2019-02-28T20:45:35.327Z,44.60
2019-02-28T20:48:04.357Z,45.87
2019-02-28T20:50:47.578Z,48.03
2019-02-28T20:53:16.097Z,47.40
2019-02-28T20:55:44.594Z,47.47
2019-02-28T20:58:13.118Z,46.57
2019-02-28T21:00:41.667Z,48.00
2019-02-28T21:03:10.191Z,48.80
2019-02-28T21:05:38.742Z,47.93
2019-02-28T21:08:07.262Z,47.97
2019-02-28T21:10:35.736Z,47.60
2019-02-28T21:13:04.321Z,49.77
2019-02-28T21:15:32.802Z,48.53
2019-02-28T21:18:01.325Z,48.00
2019-02-28T21:20:29.825Z,48.33
2019-02-28T21:22:58.332Z,47.70
2019-02-28T21:25:26.834Z,48.37
2019-02-28T21:27:55.331Z,48.77
2019-02-28T21:30:26.033Z,50.77
2019-02-28T21:32:54.804Z,51.07
2019-02-28T21:35:23.723Z,50.30
2019-02-28T21:37:52.382Z,49.67
2019-02-28T21:40:22.067Z,48.67
2019-02-28T21:42:51.671Z,48.87
2019-02-28T21:45:22.438Z,49.13
2019-02-28T21:47:50.986Z,47.87
2019-02-28T21:50:19.531Z,49.17
2019-02-28T21:52:48.233Z,48.03
2019-02-28T21:55:17.976Z,48.37
2019-02-28T21:57:46.871Z,48.07
2019-02-28T22:00:18.400Z,47.83
2019-02-28T22:02:46.918Z,48.83
2019-02-28T22:05:15.540Z,48.33
2019-02-28T22:07:44.606Z,46.30
2019-02-28T22:10:17.318Z,49.77
2019-02-28T22:12:45.876Z,48.63
2019-02-28T22:15:16.414Z,48.07
2019-02-28T22:17:44.912Z,48.40
2019-02-28T22:20:14.944Z,49.53
2019-02-28T22:22:43.457Z,50.73
2019-02-28T22:25:14.320Z,50.83
2019-02-28T22:27:42.981Z,49.90
2019-02-28T22:30:24.692Z,50.67
2019-02-28T22:32:57.771Z,49.73
2019-02-28T22:35:27.896Z,50.23
2019-02-28T22:37:56.410Z,50.63
2019-02-28T22:40:24.896Z,50.37
2019-02-28T22:42:53.408Z,51.03
2019-02-28T22:45:21.893Z,50.33
2019-02-28T22:47:50.410Z,50.70
2019-02-28T22:50:18.901Z,50.30
2019-02-28T22:52:47.942Z,50.23
2019-02-28T22:55:18.989Z,49.53
2019-02-28T22:57:47.490Z,49.63
2019-02-28T23:00:31.872Z,49.87
2019-02-28T23:03:00.470Z,52.33
2019-02-28T23:05:28.936Z,50.80
2019-02-28T23:07:57.484Z,51.90
2019-02-28T23:10:25.935Z,51.10
2019-02-28T23:12:54.577Z,50.90
2019-02-28T23:15:23.060Z,55.83
2019-02-28T23:17:51.566Z,52.93
2019-02-28T23:20:20.048Z,53.40
2019-02-28T23:22:48.555Z,51.30
2019-02-28T23:25:17.034Z,52.30
2019-02-28T23:27:45.544Z,55.23
2019-02-28T23:30:35.043Z,53.53
2019-02-28T23:33:03.693Z,52.80
2019-02-28T23:35:34.307Z,54.17
2019-02-28T23:38:02.812Z,50.47
2019-02-28T23:40:31.330Z,49.63
2019-02-28T23:42:59.794Z,52.87
2019-02-28T23:45:28.276Z,51.77
2019-02-28T23:47:56.788Z,50.83
2019-02-28T23:50:25.270Z,51.73
2019-02-28T23:52:53.778Z,52.93
2019-02-28T23:55:22.263Z,50.77
2019-02-28T23:57:50.750Z,51.80
